Time;durP1;ratioP1;P1;durP2;ratioP2;P2;SDS_P1;SDS_P2;PMS_P1;PMS_P2;Temp;Humidity;BMP_temperature;BMP_pressure;BME280_temperature;BME280_humidity;BME280_pressure;Samples;Min_cycle;Max_cycle;Signal;HPM_P1;HPM_P2
2022/04/18 00:01:10;;;;;;;;;3.00;2.25;;;;;;;;5054723;28;46226;-69
2022/04/18 00:03:35;;;;;;;;;2.00;2.00;;;;;;;;5054735;28;45558;-70
2022/04/18 00:06:01;;;;;;;;;1.25;1.25;;;;;;;;5055001;28;45483;-70
2022/04/18 00:08:26;;;;;;;;;2.00;2.00;;;;;;;;5055036;28;45453;-70
2022/04/18 00:10:51;;;;;;;;;0.75;0.75;;;;;;;;5055796;28;48100;-70
2022/04/18 00:13:17;;;;;;;;;3.25;2.00;;;;;;;;5054461;28;45408;-70
2022/04/18 00:15:42;;;;;;;;;2.00;2.00;;;;;;;;5054753;28;45277;-69
2022/04/18 00:18:07;;;;;;;;;2.00;2.00;;;;;;;;5054871;28;45559;-69
2022/04/18 00:20:32;;;;;;;;;4.00;3.50;;;;;;;;5054627;28;46317;-70
2022/04/18 00:22:57;;;;;;;;;3.00;2.00;;;;;;;;5055642;28;45260;-69
2022/04/18 00:25:23;;;;;;;;;2.25;2.25;;;;;;;;5055893;28;45268;-69
2022/04/18 00:27:49;;;;;;;;;3.00;2.00;;;;;;;;5054633;28;45233;-69
2022/04/18 00:30:14;;;;;;;;;2.00;2.00;;;;;;;;5054573;28;47210;-69
2022/04/18 00:32:39;;;;;;;;;2.00;2.00;;;;;;;;5054800;28;45498;-70
2022/04/18 00:35:05;;;;;;;;;1.00;1.00;;;;;;;;5054667;28;45194;-69
2022/04/18 00:37:32;;;;;;;;;3.00;2.00;;;;;;;;5056711;28;45511;-69
2022/04/18 00:39:57;;;;;;;;;2.75;2.00;;;;;;;;5054014;28;46978;-69
2022/04/18 00:42:22;;;;;;;;;1.25;1.25;;;;;;;;5054351;28;45486;-70
2022/04/18 00:44:47;;;;;;;;;2.50;2.25;;;;;;;;5037447;28;45355;-69
2022/04/18 00:47:13;;;;;;;;;4.00;1.75;;;;;;;;5054681;28;47029;-70
2022/04/18 00:49:38;;;;;;;;;2.00;2.00;;;;;;;;5056272;28;46056;-69
2022/04/18 00:52:05;;;;;;;;;1.00;1.00;;;;;;;;5053873;28;45295;-69
2022/04/18 00:54:31;;;;;;;;;2.00;1.50;;;;;;;;5053922;28;45398;-69
2022/04/18 00:56:57;;;;;;;;;2.75;2.75;;;;;;;;5054176;28;45515;-70
2022/04/18 00:59:22;;;;;;;;;4.00;2.75;;;;;;;;5053875;28;46119;-69
2022/04/18 01:01:48;;;;;;;;;4.75;3.00;;;;;;;;5055730;28;45553;-70
2022/04/18 01:04:13;;;;;;;;;2.00;2.00;;;;;;;;5054350;28;45568;-69
2022/04/18 01:06:38;;;;;;;;;3.00;3.00;;;;;;;;5054941;28;45522;-70
2022/04/18 01:09:03;;;;;;;;;3.00;3.00;;;;;;;;5053359;28;45836;-69
2022/04/18 01:11:29;;;;;;;;;1.75;1.75;;;;;;;;5054206;28;45475;-69
2022/04/18 01:13:54;;;;;;;;;3.00;1.50;;;;;;;;5054959;28;45319;-69
2022/04/18 01:16:19;;;;;;;;;2.00;2.00;;;;;;;;5054786;28;45528;-69
2022/04/18 01:18:48;;;;;;;;;2.00;2.00;;;;;;;;5053716;28;45968;-70
2022/04/18 01:21:16;;;;;;;;;2.50;1.50;;;;;;;;5053811;28;45364;-69
2022/04/18 01:23:41;;;;;;;;;3.75;2.25;;;;;;;;5053698;28;49172;-69
2022/04/18 01:28:59;;;;;;;;;3.50;1.50;;;;;;;;5052024;28;45886;-69
2022/04/18 01:31:34;;;;;;;;;1.00;1.00;;;;;;;;5055441;28;45308;-69
2022/04/18 01:33:59;;;;;;;;;1.00;1.00;;;;;;;;5053801;28;45482;-70
2022/04/18 01:36:26;;;;;;;;;3.00;2.00;;;;;;;;5053409;28;45563;-69
2022/04/18 01:38:51;;;;;;;;;1.25;1.25;;;;;;;;5053471;28;47275;-70
2022/04/18 01:41:17;;;;;;;;;2.00;2.00;;;;;;;;5053730;28;45419;-69
2022/04/18 01:43:42;;;;;;;;;2.00;2.00;;;;;;;;5055657;28;45376;-69
2022/04/18 01:46:08;;;;;;;;;2.00;2.00;;;;;;;;5053468;28;45361;-70
2022/04/18 01:48:33;;;;;;;;;4.25;2.75;;;;;;;;5053069;28;46342;-69
2022/04/18 01:50:58;;;;;;;;;1.75;1.75;;;;;;;;5053339;28;45502;-69
2022/04/18 01:53:24;;;;;;;;;2.00;2.00;;;;;;;;5053506;28;45348;-69
2022/04/18 01:55:49;;;;;;;;;3.25;3.25;;;;;;;;5055024;28;45279;-70
2022/04/18 01:58:14;;;;;;;;;2.00;2.00;;;;;;;;5052229;28;46882;-69
2022/04/18 02:00:39;;;;;;;;;2.00;2.00;;;;;;;;5053073;28;45393;-69
2022/04/18 02:03:05;;;;;;;;;1.00;1.00;;;;;;;;5053272;28;45557;-69
2022/04/18 02:05:30;;;;;;;;;3.00;3.00;;;;;;;;5053531;28;45507;-69
2022/04/18 02:07:55;;;;;;;;;1.50;1.50;;;;;;;;5053859;28;45525;-70
2022/04/18 02:10:20;;;;;;;;;2.75;2.75;;;;;;;;5053888;28;45484;-70
2022/04/18 02:12:45;;;;;;;;;3.50;2.75;;;;;;;;5053159;28;45512;-69
2022/04/18 02:15:11;;;;;;;;;3.25;2.00;;;;;;;;5052785;28;45220;-69
2022/04/18 02:17:36;;;;;;;;;4.00;2.50;;;;;;;;5053092;28;46290;-69
2022/04/18 02:20:01;;;;;;;;;2.50;2.50;;;;;;;;5053420;28;45245;-69
2022/04/18 02:22:27;;;;;;;;;4.00;3.25;;;;;;;;5052936;28;45284;-69
2022/04/18 02:24:55;;;;;;;;;3.50;2.50;;;;;;;;5052825;28;45472;-70
2022/04/18 02:27:20;;;;;;;;;2.75;2.75;;;;;;;;5052698;28;47206;-69
2022/04/18 02:29:46;;;;;;;;;2.00;2.00;;;;;;;;5035138;28;45506;-69
2022/04/18 02:34:54;;;;;;;;;2.00;2.00;;;;;;;;5053740;28;45403;-70
2022/04/18 02:37:20;;;;;;;;;2.00;2.00;;;;;;;;5057161;28;46389;-69
2022/04/18 02:39:46;;;;;;;;;3.00;3.00;;;;;;;;5056362;28;45607;-69
2022/04/18 02:42:11;;;;;;;;;7.50;6.25;;;;;;;;5056650;28;45407;-70
2022/04/18 02:44:36;;;;;;;;;2.75;2.75;;;;;;;;5056550;28;45414;-69
2022/04/18 02:47:01;;;;;;;;;6.00;3.00;;;;;;;;5056346;28;46205;-70
2022/04/18 02:49:27;;;;;;;;;4.75;4.75;;;;;;;;5057966;28;45406;-70
2022/04/18 02:51:52;;;;;;;;;5.50;5.50;;;;;;;;5056267;28;45374;-69
2022/04/18 02:54:17;;;;;;;;;3.75;3.75;;;;;;;;5055954;28;45353;-69
2022/04/18 02:56:42;;;;;;;;;4.00;3.75;;;;;;;;5056276;28;46169;-69
2022/04/18 02:59:07;;;;;;;;;6.25;5.25;;;;;;;;5056322;28;45399;-69
2022/04/18 03:01:32;;;;;;;;;3.75;3.00;;;;;;;;5058386;28;45537;-69
2022/04/18 03:03:58;;;;;;;;;3.50;3.00;;;;;;;;5055529;28;45434;-69
2022/04/18 03:06:23;;;;;;;;;3.25;3.25;;;;;;;;5055575;28;46180;-70
2022/04/18 03:08:48;;;;;;;;;5.00;4.00;;;;;;;;5055882;28;45532;-69
2022/04/18 03:11:13;;;;;;;;;5.75;3.50;;;;;;;;5056014;28;45417;-69
2022/04/18 03:13:45;;;;;;;;;4.50;4.50;;;;;;;;5057674;28;45541;-69
2022/04/18 03:16:11;;;;;;;;;2.00;2.00;;;;;;;;5055751;28;46600;-69
2022/04/18 03:18:36;;;;;;;;;3.00;3.00;;;;;;;;5055345;28;45439;-69
2022/04/18 03:21:03;;;;;;;;;2.50;2.50;;;;;;;;5056033;28;45433;-69
2022/04/18 03:23:28;;;;;;;;;4.00;3.00;;;;;;;;5056028;28;45574;-69
2022/04/18 03:25:53;;;;;;;;;4.25;4.25;;;;;;;;5057105;28;46211;-69
2022/04/18 03:28:18;;;;;;;;;1.75;1.75;;;;;;;;5056641;28;45874;-68
2022/04/18 03:30:44;;;;;;;;;4.50;3.50;;;;;;;;5055878;28;45245;-70
2022/04/18 03:33:09;;;;;;;;;2.75;2.75;;;;;;;;5055589;28;45591;-70
2022/04/18 03:35:34;;;;;;;;;3.00;3.00;;;;;;;;5055792;28;47291;-70
2022/04/18 03:40:43;;;;;;;;;2.50;2.50;;;;;;;;5058088;28;45389;-71
2022/04/18 03:43:09;;;;;;;;;5.25;5.00;;;;;;;;5055811;28;45469;-70
2022/04/18 03:45:34;;;;;;;;;2.00;2.00;;;;;;;;5055656;28;46204;-69
2022/04/18 03:47:59;;;;;;;;;3.00;3.00;;;;;;;;5054036;28;45245;-69
2022/04/18 03:50:24;;;;;;;;;3.50;3.50;;;;;;;;5055745;28;45512;-69
2022/04/18 03:52:49;;;;;;;;;1.75;1.75;;;;;;;;5057077;28;45398;-69
2022/04/18 03:55:15;;;;;;;;;3.25;2.50;;;;;;;;5054139;28;45288;-69
2022/04/18 03:57:40;;;;;;;;;2.75;2.75;;;;;;;;5055287;28;45628;-69
2022/04/18 04:00:06;;;;;;;;;3.00;3.00;;;;;;;;5055504;28;45262;-69
2022/04/18 04:02:31;;;;;;;;;3.25;3.25;;;;;;;;5055287;28;45387;-70
2022/04/18 04:04:56;;;;;;;;;3.75;3.75;;;;;;;;5056187;28;46899;-70
2022/04/18 04:07:22;;;;;;;;;4.00;4.00;;;;;;;;5056468;28;45510;-68
2022/04/18 04:09:47;;;;;;;;;2.00;2.00;;;;;;;;5055187;28;45411;-68
2022/04/18 04:12:12;;;;;;;;;2.75;1.50;;;;;;;;5055282;28;45408;-69
2022/04/18 04:14:37;;;;;;;;;4.00;2.75;;;;;;;;5037164;28;46219;-70
2022/04/18 04:17:03;;;;;;;;;5.00;5.00;;;;;;;;5038653;28;45511;-69
2022/04/18 04:19:28;;;;;;;;;1.25;1.25;;;;;;;;5057372;28;45509;-69
2022/04/18 04:21:53;;;;;;;;;3.00;3.00;;;;;;;;5055285;28;45403;-69
2022/04/18 04:24:20;;;;;;;;;4.00;4.00;;;;;;;;5055081;28;46845;-69
2022/04/18 04:26:45;;;;;;;;;7.50;5.75;;;;;;;;5055011;28;45518;-69
2022/04/18 04:29:10;;;;;;;;;4.00;4.00;;;;;;;;5055247;28;45451;-69
2022/04/18 04:31:35;;;;;;;;;2.75;2.75;;;;;;;;5056409;28;45402;-69
2022/04/18 04:34:01;;;;;;;;;2.25;2.25;;;;;;;;5041059;28;48049;-69
2022/04/18 04:36:26;;;;;;;;;5.75;4.25;;;;;;;;5040751;28;45576;-69
2022/04/18 04:38:51;;;;;;;;;2.50;2.50;;;;;;;;5054945;28;45542;-69
2022/04/18 04:41:16;;;;;;;;;2.50;2.50;;;;;;;;5055166;28;45393;-69
2022/04/18 04:43:41;;;;;;;;;3.50;3.50;;;;;;;;5056801;28;45485;-69
2022/04/18 04:46:07;;;;;;;;;5.25;5.00;;;;;;;;5054648;28;45442;-69
2022/04/18 04:48:32;;;;;;;;;6.00;6.00;;;;;;;;5054788;28;45517;-69
2022/04/18 04:50:57;;;;;;;;;7.00;6.00;;;;;;;;5054317;28;45418;-69
2022/04/18 04:53:23;;;;;;;;;5.00;5.00;;;;;;;;5054747;28;45494;-69
2022/04/18 04:55:48;;;;;;;;;5.75;4.00;;;;;;;;5056190;28;45437;-69
2022/04/18 04:58:13;;;;;;;;;6.00;3.00;;;;;;;;5054514;28;45516;-69
2022/04/18 05:00:39;;;;;;;;;5.00;5.00;;;;;;;;5053776;28;45473;-69
2022/04/18 05:03:05;;;;;;;;;5.25;5.25;;;;;;;;5054372;28;46118;-69
2022/04/18 05:05:31;;;;;;;;;5.50;5.50;;;;;;;;5042890;28;45483;-70
2022/04/18 05:07:56;;;;;;;;;5.00;4.00;;;;;;;;5058650;28;45552;-70
2022/04/18 05:10:21;;;;;;;;;7.25;5.25;;;;;;;;5048188;28;45225;-69
2022/04/18 05:12:47;;;;;;;;;4.00;4.00;;;;;;;;5053624;28;46570;-69
2022/04/18 05:15:12;;;;;;;;;9.75;7.00;;;;;;;;5057840;28;45457;-69
2022/04/18 05:17:37;;;;;;;;;6.50;5.50;;;;;;;;5056985;28;45292;-69
2022/04/18 05:20:05;;;;;;;;;7.75;6.00;;;;;;;;5055721;28;45225;-69
2022/04/18 05:22:31;;;;;;;;;8.75;6.00;;;;;;;;5060507;28;46179;-70
2022/04/18 05:24:56;;;;;;;;;5.25;5.25;;;;;;;;5057627;28;45558;-69
2022/04/18 05:27:22;;;;;;;;;11.00;9.00;;;;;;;;5058127;28;45410;-69
2022/04/18 05:29:47;;;;;;;;;9.25;6.25;;;;;;;;5057341;27;45498;-69
2022/04/18 05:32:12;;;;;;;;;8.50;8.50;;;;;;;;5053425;28;45560;-69
2022/04/18 05:34:38;;;;;;;;;8.00;8.00;;;;;;;;5059968;27;45321;-69
2022/04/18 05:37:04;;;;;;;;;7.00;5.00;;;;;;;;5057364;28;45246;-69
2022/04/18 05:39:29;;;;;;;;;6.00;4.25;;;;;;;;5057414;28;45513;-69
2022/04/18 05:41:56;;;;;;;;;8.25;6.00;;;;;;;;5057710;28;45534;-69
2022/04/18 05:44:21;;;;;;;;;4.00;4.00;;;;;;;;5053481;28;45345;-69
2022/04/18 05:46:46;;;;;;;;;6.00;6.00;;;;;;;;5059055;28;45308;-70
2022/04/18 05:49:11;;;;;;;;;5.75;5.75;;;;;;;;5053689;28;45245;-69
2022/04/18 05:51:38;;;;;;;;;7.00;7.00;;;;;;;;5053146;28;46113;-69
2022/04/18 05:54:03;;;;;;;;;6.50;6.50;;;;;;;;5053130;28;45500;-69
2022/04/18 05:56:29;;;;;;;;;7.25;7.25;;;;;;;;5053279;28;45447;-69
2022/04/18 05:58:55;;;;;;;;;7.75;7.75;;;;;;;;5053936;28;45390;-69
2022/04/18 06:01:20;;;;;;;;;9.25;9.25;;;;;;;;5053960;28;46279;-69
2022/04/18 06:03:45;;;;;;;;;8.00;8.00;;;;;;;;5052199;28;45642;-69
2022/04/18 06:06:10;;;;;;;;;9.25;9.25;;;;;;;;5041560;28;45528;-69
2022/04/18 06:08:35;;;;;;;;;7.50;7.50;;;;;;;;5052704;28;45416;-69
2022/04/18 06:11:00;;;;;;;;;7.00;7.00;;;;;;;;5053787;28;46154;-69
2022/04/18 06:13:26;;;;;;;;;7.75;7.00;;;;;;;;5059016;28;45439;-69
2022/04/18 06:15:52;;;;;;;;;9.75;8.75;;;;;;;;5057100;28;45481;-69
2022/04/18 06:18:18;;;;;;;;;6.75;5.50;;;;;;;;5057160;28;45527;-69
2022/04/18 06:20:43;;;;;;;;;7.50;6.75;;;;;;;;5056634;28;46021;-69
2022/04/18 06:23:08;;;;;;;;;10.00;7.25;;;;;;;;5053460;28;45319;-69
2022/04/18 06:25:33;;;;;;;;;7.00;7.00;;;;;;;;5059322;28;45439;-68
2022/04/18 06:27:58;;;;;;;;;7.50;7.25;;;;;;;;5056562;28;45533;-70
2022/04/18 06:30:24;;;;;;;;;9.25;9.00;;;;;;;;5056812;28;46200;-70
2022/04/18 06:32:49;;;;;;;;;17.25;15.25;;;;;;;;5057428;28;45407;-69
2022/04/18 06:35:14;;;;;;;;;8.75;7.25;;;;;;;;5052927;28;45451;-68
2022/04/18 06:37:39;;;;;;;;;11.50;6.75;;;;;;;;5059235;28;45458;-70
2022/04/18 06:40:05;;;;;;;;;6.00;6.00;;;;;;;;5056779;28;46090;-70
2022/04/18 06:42:34;;;;;;;;;5.50;5.50;;;;;;;;5056277;28;45449;-69
2022/04/18 06:44:59;;;;;;;;;9.00;7.00;;;;;;;;5052553;28;45510;-68
2022/04/18 06:47:24;;;;;;;;;6.00;5.75;;;;;;;;5052383;28;45501;-68
2022/04/18 06:49:49;;;;;;;;;5.75;5.75;;;;;;;;5053357;28;47165;-70
2022/04/18 06:52:14;;;;;;;;;5.50;5.50;;;;;;;;5053219;28;45502;-69
2022/04/18 06:54:39;;;;;;;;;5.00;4.00;;;;;;;;5052526;28;45513;-69
2022/04/18 06:57:05;;;;;;;;;8.00;7.50;;;;;;;;5052531;28;45489;-69
2022/04/18 06:59:30;;;;;;;;;6.00;6.00;;;;;;;;5052657;28;46062;-69
2022/04/18 07:01:56;;;;;;;;;14.75;14.75;;;;;;;;5037603;28;45501;-69
2022/04/18 07:04:21;;;;;;;;;8.75;7.00;;;;;;;;5053578;28;45348;-69
2022/04/18 07:06:47;;;;;;;;;8.25;6.00;;;;;;;;5052603;28;45315;-69
2022/04/18 07:09:12;;;;;;;;;9.50;9.00;;;;;;;;5052121;28;45575;-71
2022/04/18 07:11:37;;;;;;;;;3.00;3.00;;;;;;;;5051844;28;45820;-69
2022/04/18 07:14:03;;;;;;;;;9.25;7.50;;;;;;;;5052233;28;45402;-69
2022/04/18 07:16:30;;;;;;;;;7.50;7.00;;;;;;;;5053922;28;45278;-68
2022/04/18 07:18:55;;;;;;;;;12.00;12.00;;;;;;;;5051726;28;46345;-68
2022/04/18 07:21:20;;;;;;;;;6.25;6.00;;;;;;;;5052044;28;45367;-68
2022/04/18 07:23:45;;;;;;;;;8.00;7.50;;;;;;;;5055049;28;45292;-68
2022/04/18 07:26:11;;;;;;;;;9.75;9.00;;;;;;;;5055019;28;45193;-68
2022/04/18 07:28:38;;;;;;;;;11.50;8.75;;;;;;;;5056817;28;45316;-69
2022/04/18 07:31:04;;;;;;;;;7.75;6.75;;;;;;;;5054733;28;45574;-68
2022/04/18 07:33:29;;;;;;;;;9.50;9.50;;;;;;;;5055085;28;45453;-68
2022/04/18 07:35:54;;;;;;;;;11.50;11.50;;;;;;;;5055561;28;45526;-68
2022/04/18 07:41:06;;;;;;;;;7.00;7.00;;;;;;;;5054546;28;45426;-69
2022/04/18 07:43:34;;;;;;;;;7.75;7.75;;;;;;;;5057135;28;45438;-68
2022/04/18 07:45:59;;;;;;;;;9.50;9.50;;;;;;;;5054870;28;45474;-69
2022/04/18 07:48:25;;;;;;;;;8.50;6.50;;;;;;;;5054822;28;45473;-69
2022/04/18 07:53:33;;;;;;;;;14.00;12.25;;;;;;;;5055065;28;45450;-69
2022/04/18 07:55:59;;;;;;;;;7.00;7.00;;;;;;;;5054728;28;45351;-68
2022/04/18 07:58:24;;;;;;;;;12.75;9.25;;;;;;;;5056336;28;45426;-67
2022/04/18 08:00:49;;;;;;;;;7.50;7.50;;;;;;;;5041019;28;45391;-69
2022/04/18 08:03:16;;;;;;;;;9.25;9.25;;;;;;;;5054409;28;45529;-69
2022/04/18 08:05:41;;;;;;;;;6.50;6.50;;;;;;;;5053212;28;45371;-69
2022/04/18 08:08:07;;;;;;;;;9.75;8.25;;;;;;;;5054665;28;46231;-69
2022/04/18 08:10:36;;;;;;;;;10.75;10.75;;;;;;;;5055898;28;45363;-69
2022/04/18 08:13:01;;;;;;;;;9.75;8.50;;;;;;;;5054410;28;45328;-70
2022/04/18 08:15:27;;;;;;;;;9.50;9.50;;;;;;;;5054599;28;45515;-69
2022/04/18 08:17:52;;;;;;;;;9.00;8.75;;;;;;;;5054571;28;46565;-69
2022/04/18 08:20:17;;;;;;;;;10.00;10.00;;;;;;;;5054559;28;45553;-68
2022/04/18 08:22:43;;;;;;;;;8.00;8.00;;;;;;;;5056284;28;45329;-67
2022/04/18 08:25:08;;;;;;;;;10.00;10.00;;;;;;;;5054381;28;45415;-68
2022/04/18 08:27:33;;;;;;;;;11.75;10.25;;;;;;;;5054530;28;45528;-68
2022/04/18 08:30:00;;;;;;;;;12.50;9.50;;;;;;;;5054238;28;45580;-69
2022/04/18 08:32:25;;;;;;;;;9.00;8.25;;;;;;;;5054401;28;45600;-68
2022/04/18 08:34:50;;;;;;;;;10.00;9.50;;;;;;;;5056058;28;45486;-67
2022/04/18 08:37:15;;;;;;;;;16.50;13.00;;;;;;;;5054970;28;46477;-68
2022/04/18 08:39:41;;;;;;;;;7.00;6.50;;;;;;;;5053794;28;45513;-69
2022/04/18 08:42:06;;;;;;;;;12.00;10.25;;;;;;;;5053856;28;45498;-69
2022/04/18 08:44:34;;;;;;;;;9.25;8.50;;;;;;;;5053970;28;45270;-68
2022/04/18 08:47:00;;;;;;;;;7.00;6.25;;;;;;;;5054384;28;47146;-69
2022/04/18 08:54:53;;;;;;;;;12.00;10.75;;;;;;;;5053384;28;45431;-69
2022/04/18 08:57:18;;;;;;;;;9.25;8.25;;;;;;;;5050564;28;45641;-70
2022/04/18 08:59:44;;;;;;;;;10.50;9.25;;;;;;;;5053698;28;45476;-68
2022/04/18 09:02:09;;;;;;;;;11.25;10.75;;;;;;;;5058424;28;45415;-68
2022/04/18 09:04:34;;;;;;;;;11.50;10.50;;;;;;;;5066351;28;45446;-69
2022/04/18 09:07:09;;;;;;;;;8.00;8.00;;;;;;;;5054648;28;45573;-69
2022/04/18 09:09:35;;;;;;;;;10.00;9.50;;;;;;;;5050847;28;45376;-68
2022/04/18 09:12:01;;;;;;;;;10.50;7.25;;;;;;;;5053173;28;45441;-69
2022/04/18 09:14:27;;;;;;;;;9.00;9.00;;;;;;;;5053072;28;45496;-69
2022/04/18 09:16:52;;;;;;;;;11.75;9.75;;;;;;;;5054254;28;47263;-68
2022/04/18 09:19:17;;;;;;;;;5.00;5.00;;;;;;;;5054918;28;45368;-70
2022/04/18 09:21:42;;;;;;;;;8.50;6.50;;;;;;;;5040643;28;45314;-69
2022/04/18 09:24:21;;;;;;;;;5.50;4.75;;;;;;;;5053535;28;45554;-69
2022/04/18 09:26:46;;;;;;;;;12.50;11.25;;;;;;;;5052823;28;46270;-69
2022/04/18 09:29:11;;;;;;;;;7.25;6.50;;;;;;;;5052694;28;45375;-69
2022/04/18 09:31:40;;;;;;;;;9.00;8.25;;;;;;;;5048425;28;45382;-69
2022/04/18 09:34:06;;;;;;;;;7.50;7.00;;;;;;;;5053077;28;45386;-68
2022/04/18 09:36:31;;;;;;;;;8.00;6.00;;;;;;;;5051499;28;46865;-69
2022/04/18 09:38:56;;;;;;;;;12.75;9.00;;;;;;;;5052100;28;45548;-69
2022/04/18 09:41:23;;;;;;;;;5.25;5.25;;;;;;;;5053445;28;45462;-68
2022/04/18 09:43:49;;;;;;;;;11.00;10.00;;;;;;;;5054682;28;45295;-68
2022/04/18 09:46:15;;;;;;;;;8.75;7.50;;;;;;;;5052591;28;46329;-74
2022/04/18 09:48:41;;;;;;;;;12.00;8.75;;;;;;;;5053064;28;45612;-69
2022/04/18 09:51:08;;;;;;;;;10.25;9.00;;;;;;;;5052779;28;45498;-70
2022/04/18 09:53:34;;;;;;;;;8.75;8.75;;;;;;;;5035238;28;45382;-70
2022/04/18 09:56:00;;;;;;;;;7.00;5.50;;;;;;;;5053555;28;47410;-69
2022/04/18 09:58:25;;;;;;;;;5.75;5.25;;;;;;;;5054614;28;45437;-70
2022/04/18 10:00:50;;;;;;;;;7.00;7.00;;;;;;;;5053236;28;45434;-70
2022/04/18 10:03:16;;;;;;;;;14.25;11.75;;;;;;;;5052449;28;45497;-71
2022/04/18 10:05:42;;;;;;;;;5.00;3.75;;;;;;;;5052347;28;47126;-72
2022/04/18 10:08:07;;;;;;;;;5.75;5.75;;;;;;;;5052100;28;45469;-70
2022/04/18 10:10:33;;;;;;;;;7.00;7.00;;;;;;;;5053938;28;45454;-71
2022/04/18 10:12:58;;;;;;;;;6.00;5.00;;;;;;;;5052144;28;45487;-70
2022/04/18 10:15:24;;;;;;;;;10.75;7.00;;;;;;;;5051917;28;45661;-70
2022/04/18 10:17:50;;;;;;;;;6.00;4.75;;;;;;;;5052026;28;45383;-74
2022/04/18 10:20:25;;;;;;;;;3.00;3.00;;;;;;;;5040472;28;45382;-72
2022/04/18 10:23:08;;;;;;;;;8.00;8.00;;;;;;;;5050809;28;45360;-71
2022/04/18 10:25:52;;;;;;;;;5.00;5.00;;;;;;;;5053012;28;47245;-71
2022/04/18 10:28:20;;;;;;;;;5.25;5.25;;;;;;;;5051223;28;45382;-69
2022/04/18 10:30:55;;;;;;;;;7.75;7.75;;;;;;;;5052625;28;45633;-73
2022/04/18 10:33:20;;;;;;;;;7.50;7.00;;;;;;;;5051125;28;45453;-73
2022/04/18 10:35:46;;;;;;;;;3.75;3.75;;;;;;;;5051271;28;46053;-72
2022/04/18 10:38:11;;;;;;;;;6.75;6.75;;;;;;;;5051731;28;45446;-71
2022/04/18 10:40:40;;;;;;;;;4.50;4.50;;;;;;;;5053843;28;45459;-70
2022/04/18 10:43:07;;;;;;;;;3.50;3.50;;;;;;;;5051912;28;45486;-72
2022/04/18 10:45:34;;;;;;;;;5.25;5.00;;;;;;;;5050314;28;46249;-74
2022/04/18 10:48:00;;;;;;;;;5.00;5.00;;;;;;;;5051109;28;45505;-72
2022/04/18 10:50:45;;;;;;;;;5.00;4.75;;;;;;;;5051792;28;45240;-72
2022/04/18 10:53:17;;;;;;;;;5.75;5.75;;;;;;;;5052153;28;45687;-72
2022/04/18 10:55:51;;;;;;;;;5.50;5.50;;;;;;;;5054256;28;47180;-72
2022/04/18 10:58:26;;;;;;;;;6.00;6.00;;;;;;;;5055150;28;45439;-72
2022/04/18 11:00:55;;;;;;;;;6.00;6.00;;;;;;;;5055570;28;45385;-72
2022/04/18 11:03:39;;;;;;;;;6.50;5.50;;;;;;;;5055525;28;45355;-71
2022/04/18 11:06:27;;;;;;;;;5.25;4.00;;;;;;;;5054320;28;46328;-70
2022/04/18 11:08:57;;;;;;;;;5.00;5.00;;;;;;;;5044480;28;45558;-70
2022/04/18 11:11:22;;;;;;;;;4.75;4.75;;;;;;;;5055588;28;45542;-75
2022/04/18 11:13:48;;;;;;;;;6.25;6.00;;;;;;;;5057643;28;45392;-72
2022/04/18 11:16:22;;;;;;;;;4.00;4.00;;;;;;;;5055968;28;46442;-70
2022/04/18 11:19:07;;;;;;;;;3.25;3.25;;;;;;;;5056152;28;45599;-69
2022/04/18 11:21:51;;;;;;;;;4.50;4.50;;;;;;;;5055984;28;45507;-69
2022/04/18 11:24:37;;;;;;;;;3.75;2.75;;;;;;;;5055197;28;45354;-70
2022/04/18 11:27:06;;;;;;;;;4.00;4.00;;;;;;;;5054274;28;47094;-69
2022/04/18 11:29:31;;;;;;;;;4.25;4.25;;;;;;;;5055329;28;45277;-72
2022/04/18 11:31:57;;;;;;;;;11.00;11.00;;;;;;;;5055817;28;45376;-71
2022/04/18 11:34:26;;;;;;;;;9.25;9.00;;;;;;;;5056258;28;45284;-71
2022/04/18 11:36:53;;;;;;;;;3.00;3.00;;;;;;;;5053918;28;46360;-69
2022/04/18 11:39:18;;;;;;;;;5.25;4.50;;;;;;;;5052035;28;45651;-68
2022/04/18 11:41:43;;;;;;;;;6.75;5.50;;;;;;;;5055143;28;47940;-69
2022/04/18 11:44:09;;;;;;;;;4.00;4.00;;;;;;;;5055099;28;45432;-68
2022/04/18 11:46:34;;;;;;;;;5.50;5.50;;;;;;;;5056276;28;45415;-69
2022/04/18 11:48:59;;;;;;;;;6.25;5.50;;;;;;;;5054804;28;45570;-71
2022/04/18 11:51:40;;;;;;;;;5.00;5.00;;;;;;;;5054971;28;45374;-71
2022/04/18 11:54:05;;;;;;;;;5.50;5.50;;;;;;;;5053893;28;45492;-71
2022/04/18 11:56:30;;;;;;;;;6.50;6.00;;;;;;;;5054872;28;45449;-71
2022/04/18 11:58:56;;;;;;;;;5.50;4.00;;;;;;;;5051644;28;45553;-72
2022/04/18 12:06:52;;;;;;;;;8.25;7.50;;;;;;;;5056664;28;45882;-71
2022/04/18 12:09:22;;;;;;;;;5.50;5.50;;;;;;;;5057510;28;45596;-72
2022/04/18 12:11:48;;;;;;;;;5.25;4.50;;;;;;;;5067397;27;45449;-73
2022/04/18 12:14:13;;;;;;;;;6.00;6.00;;;;;;;;5054016;28;45302;-71
2022/04/18 12:16:39;;;;;;;;;5.00;5.00;;;;;;;;5058885;28;47510;-69
2022/04/18 12:19:05;;;;;;;;;4.50;4.50;;;;;;;;5058716;28;45437;-72
2022/04/18 12:21:30;;;;;;;;;2.25;2.25;;;;;;;;5058780;27;45517;-71
2022/04/18 12:23:56;;;;;;;;;2.25;2.25;;;;;;;;5059197;28;45448;-71
2022/04/18 12:26:28;;;;;;;;;3.75;3.50;;;;;;;;5054407;28;45466;-71
2022/04/18 12:28:57;;;;;;;;;3.25;3.25;;;;;;;;5057909;28;45437;-71
2022/04/18 12:31:22;;;;;;;;;4.50;3.00;;;;;;;;5059359;28;45458;-71
2022/04/18 12:33:50;;;;;;;;;5.50;4.25;;;;;;;;5058591;28;49688;-71
2022/04/18 12:36:26;;;;;;;;;4.00;3.00;;;;;;;;5053000;28;46378;-71
2022/04/18 12:38:51;;;;;;;;;4.00;3.00;;;;;;;;5053695;28;45350;-71
2022/04/18 12:41:25;;;;;;;;;4.75;3.75;;;;;;;;5054007;28;45313;-71
2022/04/18 12:43:51;;;;;;;;;2.25;2.25;;;;;;;;5051342;28;45302;-71
2022/04/18 12:46:16;;;;;;;;;2.00;2.00;;;;;;;;5054476;28;47220;-71
2022/04/18 12:48:48;;;;;;;;;2.25;2.25;;;;;;;;5053498;28;45548;-71
2022/04/18 12:51:13;;;;;;;;;4.00;4.00;;;;;;;;5033196;28;45839;-71
2022/04/18 12:53:46;;;;;;;;;4.00;3.00;;;;;;;;5049740;28;45455;-71
2022/04/18 12:56:13;;;;;;;;;3.25;3.25;;;;;;;;5053707;28;46900;-72
2022/04/18 12:58:39;;;;;;;;;2.50;2.50;;;;;;;;5054434;28;45429;-71
2022/04/18 13:01:05;;;;;;;;;4.75;3.75;;;;;;;;5053406;28;45616;-71
2022/04/18 13:03:39;;;;;;;;;3.75;3.75;;;;;;;;5052845;28;45491;-72
2022/04/18 13:06:04;;;;;;;;;3.00;3.00;;;;;;;;5052740;28;46445;-72
2022/04/18 13:08:29;;;;;;;;;2.50;2.50;;;;;;;;5039960;28;46101;-72
2022/04/18 13:10:55;;;;;;;;;3.50;3.00;;;;;;;;5054241;28;45328;-72
2022/04/18 13:13:21;;;;;;;;;1.50;1.50;;;;;;;;5053628;28;45515;-72
2022/04/18 13:15:46;;;;;;;;;3.00;3.00;;;;;;;;5052316;28;47139;-71
2022/04/18 13:18:21;;;;;;;;;1.50;1.50;;;;;;;;5038432;28;45442;-70
2022/04/18 13:20:46;;;;;;;;;2.25;2.25;;;;;;;;5052650;28;45446;-69
2022/04/18 13:23:11;;;;;;;;;3.25;3.25;;;;;;;;5052538;28;45571;-68
2022/04/18 13:25:38;;;;;;;;;2.00;2.00;;;;;;;;5054572;28;47042;-68
2022/04/18 13:28:06;;;;;;;;;3.00;3.00;;;;;;;;5052334;28;45363;-68
2022/04/18 13:30:32;;;;;;;;;4.00;4.00;;;;;;;;5052044;28;45470;-68
2022/04/18 13:32:58;;;;;;;;;2.50;2.50;;;;;;;;5033405;28;45534;-68
2022/04/18 13:35:23;;;;;;;;;6.75;5.50;;;;;;;;5052402;28;45348;-69
2022/04/18 13:37:48;;;;;;;;;5.25;4.00;;;;;;;;5056175;28;45381;-68
2022/04/18 13:40:14;;;;;;;;;3.50;3.50;;;;;;;;5052688;28;45372;-69
2022/04/18 13:42:41;;;;;;;;;3.50;3.50;;;;;;;;5052538;28;45332;-69
2022/04/18 13:45:08;;;;;;;;;1.00;1.00;;;;;;;;5051358;28;46056;-69
2022/04/18 13:47:33;;;;;;;;;10.00;9.00;;;;;;;;5052407;28;45450;-69
2022/04/18 13:49:59;;;;;;;;;5.75;4.75;;;;;;;;5052879;28;45432;-70
2022/04/18 13:52:25;;;;;;;;;2.00;2.00;;;;;;;;5053956;28;45661;-69
2022/04/18 13:54:50;;;;;;;;;3.25;3.25;;;;;;;;5051280;28;46161;-69
2022/04/18 13:57:15;;;;;;;;;8.00;7.00;;;;;;;;5052035;28;45506;-69
2022/04/18 13:59:40;;;;;;;;;8.00;6.00;;;;;;;;5052333;28;45413;-69
2022/04/18 14:02:06;;;;;;;;;3.00;3.00;;;;;;;;5052537;28;45468;-69
2022/04/18 14:04:31;;;;;;;;;2.00;2.00;;;;;;;;5053902;28;46514;-70
2022/04/18 14:06:57;;;;;;;;;5.00;4.00;;;;;;;;5052318;28;45461;-70
2022/04/18 14:09:23;;;;;;;;;3.00;2.00;;;;;;;;5038548;28;45346;-70
2022/04/18 14:11:48;;;;;;;;;3.00;3.00;;;;;;;;5051836;28;45575;-70
2022/04/18 14:20:20;;;;;;;;;2.00;2.00;;;;;;;;5052760;28;45362;-70
2022/04/18 14:22:27;;;;;;;;;1.50;1.50;;;;;;;;5054419;28;45415;-69
2022/04/18 14:24:52;;;;;;;;;5.00;4.00;;;;;;;;5052029;28;46156;-69
2022/04/18 14:27:17;;;;;;;;;2.00;2.00;;;;;;;;5052049;28;45448;-68
2022/04/18 14:29:42;;;;;;;;;2.00;2.00;;;;;;;;5052636;28;45456;-69
2022/04/18 14:32:08;;;;;;;;;2.00;2.00;;;;;;;;5034342;28;45571;-68
2022/04/18 14:34:34;;;;;;;;;3.00;2.00;;;;;;;;5053784;28;45471;-69
2022/04/18 14:37:00;;;;;;;;;1.25;1.25;;;;;;;;5051963;28;45225;-68
2022/04/18 14:39:25;;;;;;;;;1.00;1.00;;;;;;;;5052097;28;45528;-69
2022/04/18 14:41:51;;;;;;;;;2.25;2.25;;;;;;;;5051634;28;45514;-70
2022/04/18 14:44:16;;;;;;;;;3.00;3.00;;;;;;;;5051809;28;46292;-70
2022/04/18 14:46:41;;;;;;;;;2.00;1.00;;;;;;;;5054125;28;45430;-70
2022/04/18 14:49:07;;;;;;;;;1.00;1.00;;;;;;;;5052133;28;45568;-69
2022/04/18 14:51:32;;;;;;;;;2.00;2.00;;;;;;;;5038696;28;45395;-70
2022/04/18 14:53:58;;;;;;;;;1.00;1.00;;;;;;;;5052339;28;45961;-70
2022/04/18 14:56:23;;;;;;;;;3.00;2.00;;;;;;;;5033905;28;45786;-69
2022/04/18 14:58:48;;;;;;;;;3.00;3.00;;;;;;;;5053909;28;45237;-69
2022/04/18 15:01:13;;;;;;;;;5.00;4.00;;;;;;;;5050575;28;45312;-69
2022/04/18 15:03:39;;;;;;;;;0.50;0.25;;;;;;;;5051545;28;46678;-69
2022/04/18 15:06:04;;;;;;;;;0.00;0.00;;;;;;;;5051971;28;45715;-69